RUNWAY INFORMATION
Runway Length Width Elevation Displaced
Threshold
Heading | Runway Length Width Elevation Displaced
Threshold
Heading
09 6001 ft 150 ft 8 ft 0 ft 90 | 27 6001 ft 150 ft 8 ft 0 ft 270

 AIRPORT FREQUENCIES
Type CTAF Name CTAF Frequency 123.6 MHZ
Type RDO Name RDO Frequency 123.6 MHZ

 AIRPORT NEAR NAVIGATION AIDS
Type NDB-DME Name Pohnpei Frequency 366 KHZ

 METAR AND TAF INFORMATION
METAR FOR PTPN
ADDS - METARS form results

(2325 UTC 09 May 2021)
Data provider http://aviationweather.gov/metar/data/
 
METAR text: PTPN 092250Z 09005KT 15SM BKN017TCU OVC130 26/25 A2979 RMK TCU ALQDS
Conditions at: PTPN (POHNPEI AIRPORT , FM) observed 2250 UTC 09 May 2021
Temperature: 26.0°C (79°F)
Dewpoint: 25.0°C (77°F) [RH = 94%]
Pressure (altimeter): 29.79 inches Hg (1008.9 mb)
Winds: from the E (90 degrees) at 6 MPH (5 knots; 2.6 m/s)
Visibility: 15 miles (24 km)
Ceiling: 1700 feet AGL
Clouds: broken clouds at 1700 feet AGL
overcast cloud deck at 13000 feet AGL
Weather: no significant weather observed at this time



© 2013 - 2021, FlightSimLog.org - Powered by Virtual Airlines Manager